Carp Lake, MI (49718)

8:38 AM EST on December 03, 2016 (GMT -0500)
North Levering MI | | Change Station

Elev 741 ft 45.67 °N, 84.79 °W | Updated 2 seconds ago

Overcast
Overcast
36.4 °F
Feels Like 36 °F
N
1.6
Wind Variable Wind from NW
Gusts 3.4 mph

Today
High -- | Low -- °F
--% Chance of Precip.
Yesterday
High -- | Low -- °F
Precip. -- in
Pressure 30.24 in
Visibility 10.0 miles
Clouds Scattered Clouds 2600 ft
Overcast 4900 ft
Windchill 36 °F
Dew Point 31 °F
Humidity 82%
Rainfall 0.00 in
Snow Depth Not available.
8:02 AM 4:55 PM
Waxing Crescent, 15% visible
SPECI KPLN 031315Z AUTO 29003KT 10SM SCT026 OVC049 02/M01 A3024 RMK AO2 T00221006
Pressure 30.24 in
Visibility 10.0 miles
Clouds Scattered Clouds 2600 ft
Overcast 4900 ft
Windchill 36 °F
Dew Point 31 °F
Humidity 82%
Rainfall 0.00 in
Snow Depth Not available.
8:02 AM 4:55 PM
Waxing Crescent, 15% visible
SPECI KPLN 031315Z AUTO 29003KT 10SM SCT026 OVC049 02/M01 A3024 RMK AO2 T00221006

10-Day Weather Forecast

Almanac

Astronomy

Dec. 03, 2016 Rise Set
Actual Time
Civil Twilight
Nautical Twilight
Astronomical Twilight
Moon
Length of Visible Light
Length of Day
Tomorrow will be .
, % of the Moon is Illuminated

Today's Extremes

State Highs State Lows

Community

WunderPhotos

Upload Photos

1,955,429 photos uploaded!

WunderBlog® & News

Nearby

Air Quality

  Air Quality AQ Index Pollutant
Not available.

Snow Depth

Station Depth Elevation

Earthquake Activity

City Distance Mag. Time & Date
Minimum magnitude displayed is 2.5.

Coastal Water Temperatures

Place Temperature

Stations

Nearby Weather Stations

Station Location Temp. Windchill Dew Point Humidity Wind Precip. Elev Updated Type
                   

Watches & Warnings

There are currently no watches in effect.